Time;durP1;ratioP1;P1;durP2;ratioP2;P2;SDS_P1;SDS_P2;PMS_P1;PMS_P2;Temp;Humidity;BMP_temperature;BMP_pressure;BME280_temperature;BME280_humidity;BME280_pressure;Samples;Min_cycle;Max_cycle;Signal;HPM_P1;HPM_P2
2021/07/30 00:07:02;;;;;;;7.37;5.50;;;;;;;17.47;62.98;99016.95;532479;1089;115811;-59
2021/07/30 00:17:09;;;;;;;6.00;5.40;;;;;;;17.21;63.71;99005.38;531915;1090;116435;-59
2021/07/30 00:27:15;;;;;;;9.03;6.30;;;;;;;17.01;63.82;99006.56;532614;1088;117220;-59
2021/07/30 00:37:22;;;;;;;7.57;6.80;;;;;;;16.90;64.30;99011.09;531872;1089;116649;-57
2021/07/30 00:47:31;;;;;;;8.60;7.20;;;;;;;17.10;63.59;99008.29;532623;1089;116453;-59
2021/07/30 00:57:47;;;;;;;7.80;5.73;;;;;;;17.09;63.56;98999.48;532607;1089;116761;-58
2021/07/30 01:08:06;;;;;;;7.43;5.95;;;;;;;16.98;63.90;99004.20;531831;1089;116507;-59
2021/07/30 01:18:28;;;;;;;;;;;;;;;17.09;63.79;99007.44;532622;1089;117357;-59
2021/07/30 01:28:39;;;;;;;12.10;6.40;;;;;;;17.19;63.35;99003.86;532272;1088;102407;-59
2021/07/30 01:38:50;;;;;;;10.00;5.57;;;;;;;17.23;64.00;99010.52;532601;1089;116613;-59
2021/07/30 01:48:56;;;;;;;8.87;6.67;;;;;;;17.05;64.05;99000.80;532615;1089;115942;-59
2021/07/30 01:59:02;;;;;;;5.73;5.13;;;;;;;16.91;64.66;98996.84;531842;1089;115673;-59
2021/07/30 02:09:09;;;;;;;7.13;5.53;;;;;;;16.79;64.90;98998.07;532588;1089;116091;-59
2021/07/30 02:19:17;;;;;;;8.07;7.27;;;;;;;16.80;65.10;99011.19;532566;1089;117770;-60
2021/07/30 02:29:24;;;;;;;7.78;5.63;;;;;;;16.57;65.29;99013.45;532571;1089;116707;-59
2021/07/30 02:39:30;;;;;;;7.50;5.53;;;;;;;16.50;65.46;99013.23;532613;1089;116474;-59
2021/07/30 02:49:37;;;;;;;8.90;6.27;;;;;;;16.53;65.84;99017.41;531924;1089;116188;-58
2021/07/30 02:59:43;;;;;;;8.63;7.27;;;;;;;16.47;65.92;99015.34;532636;1090;116944;-58
2021/07/30 03:09:50;;;;;;;11.20;7.00;;;;;;;16.43;66.13;98998.91;532615;1089;116395;-59
2021/07/30 03:19:56;;;;;;;7.23;5.80;;;;;;;16.47;66.62;99000.28;531843;1089;116429;-60
2021/07/30 03:30:03;;;;;;;11.50;6.70;;;;;;;16.56;66.72;99014.44;532562;1089;115693;-59
2021/07/30 03:40:11;;;;;;;7.97;6.67;;;;;;;16.61;66.45;99014.80;532548;1089;117429;-59
2021/07/30 03:50:18;;;;;;;11.63;6.63;;;;;;;16.86;66.25;99008.89;531724;1090;116290;-60
2021/07/30 04:00:24;;;;;;;7.60;6.67;;;;;;;17.11;66.36;99011.76;532611;1088;118128;-58
2021/07/30 04:10:31;;;;;;;7.90;6.00;;;;;;;17.57;65.22;99022.17;531864;1089;117501;-58
2021/07/30 04:20:40;;;;;;;8.80;6.30;;;;;;;21.50;63.44;99018.23;532684;1089;115926;-59
2021/07/30 04:30:46;;;;;;;7.57;5.80;;;;;;;29.48;52.77;99012.83;532568;1088;116678;-60
2021/07/30 04:40:52;;;;;;;10.80;6.13;;;;;;;30.08;44.84;99008.14;531839;1089;116015;-59
2021/07/30 04:51:02;;;;;;;7.43;6.03;;;;;;;26.23;44.90;99024.89;532080;1089;116390;-58
2021/07/30 05:01:09;;;;;;;8.53;5.43;;;;;;;29.03;45.26;99022.34;532564;1089;115943;-58
2021/07/30 05:11:16;;;;;;;5.77;4.77;;;;;;;37.09;37.30;99001.45;531872;1088;116000;-58
2021/07/30 05:21:22;;;;;;;7.25;5.10;;;;;;;41.11;30.54;99004.56;532613;1089;116329;-59
2021/07/30 05:31:29;;;;;;;6.10;5.20;;;;;;;42.84;25.78;99010.08;531901;1090;115983;-58
2021/07/30 05:41:35;;;;;;;10.37;5.30;;;;;;;44.82;23.51;99003.40;532682;1088;115969;-58
2021/07/30 05:51:41;;;;;;;10.05;4.80;;;;;;;45.69;21.14;99015.31;532596;1088;117400;-59
2021/07/30 06:01:48;;;;;;;6.53;4.53;;;;;;;49.05;19.44;99018.03;531931;1088;116990;-59
2021/07/30 06:11:54;;;;;;;4.70;3.28;;;;;;;48.59;17.46;99012.45;532628;1088;115862;-59
2021/07/30 06:22:01;;;;;;;7.45;4.05;;;;;;;46.86;17.34;99011.03;532659;1090;116297;-59
2021/07/30 06:32:08;;;;;;;8.75;3.83;;;;;;;43.75;19.12;99005.47;531863;1089;115955;-60
2021/07/30 06:42:14;;;;;;;4.60;4.20;;;;;;;42.54;18.88;99005.29;532618;1089;116313;-59
2021/07/30 06:52:21;;;;;;;7.20;3.70;;;;;;;44.26;18.24;99010.14;532573;1088;116559;-59
2021/07/30 07:02:27;;;;;;;10.03;4.53;;;;;;;41.93;19.38;98989.56;532670;1089;116512;-60
2021/07/30 07:12:33;;;;;;;5.38;3.48;;;;;;;44.45;18.51;98993.84;532644;1089;116127;-58
2021/07/30 07:22:41;;;;;;;6.55;3.73;;;;;;;50.97;15.20;98994.47;531839;1088;116057;-59
2021/07/30 07:32:47;;;;;;;6.33;5.83;;;;;;;56.23;12.67;98991.17;532546;1089;116387;-60
2021/07/30 07:42:56;;;;;;;10.73;10.23;;;;;;;55.36;11.38;98989.44;532581;1089;115734;-59
2021/07/30 07:53:02;;;;;;;10.55;9.88;;;;;;;54.82;10.77;98993.58;531878;1089;116248;-60
2021/07/30 08:03:08;;;;;;;6.50;6.05;;;;;;;53.65;10.80;98991.45;532514;1088;116500;-59
2021/07/30 08:13:15;;;;;;;4.05;2.40;;;;;;;46.30;12.25;98973.91;532626;1089;116147;-60
2021/07/30 08:23:22;;;;;;;6.58;2.00;;;;;;;37.55;16.64;98976.31;532622;1088;116479;-59
2021/07/30 08:33:28;;;;;;;7.18;2.20;;;;;;;34.20;19.82;98981.27;532594;1089;116289;-60
2021/07/30 08:43:34;;;;;;;3.30;2.10;;;;;;;32.67;21.33;98972.89;531701;1089;116764;-58
2021/07/30 08:53:41;;;;;;;4.30;2.03;;;;;;;31.16;23.66;98979.30;532584;1088;116200;-59
2021/07/30 09:03:48;;;;;;;6.33;2.30;;;;;;;30.69;25.07;98976.97;532627;1089;117470;-59
2021/07/30 09:13:55;;;;;;;5.30;2.73;;;;;;;30.37;24.91;98970.20;531886;1089;116241;-59
2021/07/30 09:24:04;;;;;;;9.23;2.93;;;;;;;30.06;25.07;98972.34;532619;1089;116224;-58
2021/07/30 09:34:19;;;;;;;7.97;1.90;;;;;;;29.60;26.30;98947.91;532567;1089;116261;-58
2021/07/30 09:44:26;;;;;;;3.83;2.20;;;;;;;28.91;27.03;98949.38;532608;1089;116096;-59
2021/07/30 09:54:34;;;;;;;6.00;2.73;;;;;;;28.37;27.25;98932.16;532613;1088;118120;-60
2021/07/30 10:04:44;;;;;;;7.25;2.78;;;;;;;28.14;28.20;98934.77;531837;1089;116619;-58
2021/07/30 10:14:51;;;;;;;4.57;1.73;;;;;;;28.00;28.57;98910.69;532646;1089;117245;-58
2021/07/30 10:24:59;;;;;;;4.87;2.23;;;;;;;27.87;29.03;98908.18;532606;1088;116267;-58
2021/07/30 10:35:07;;;;;;;8.20;2.70;;;;;;;27.61;29.73;98894.02;531915;1090;117398;-59
2021/07/30 10:45:19;;;;;;;9.03;3.15;;;;;;;27.34;29.66;98883.52;532605;1090;116511;-59
2021/07/30 10:55:42;;;;;;;3.53;1.80;;;;;;;27.19;29.97;98876.64;531877;1089;115787;-58
2021/07/30 11:06:11;;;;;;;5.57;2.90;;;;;;;26.97;30.75;98860.13;532626;1090;116667;-59
2021/07/30 11:16:25;;;;;;;4.20;2.00;;;;;;;26.89;30.33;98845.05;532630;1089;117571;-58
2021/07/30 11:26:33;;;;;;;5.17;2.23;;;;;;;26.85;30.21;98838.45;532593;1089;115820;-59
2021/07/30 11:37:00;;;;;;;5.23;2.27;;;;;;;26.69;31.08;98847.93;532611;1089;117477;-59
2021/07/30 11:47:07;;;;;;;3.73;2.00;;;;;;;26.74;30.80;98836.50;531897;1088;115791;-58
2021/07/30 11:57:24;;;;;;;6.47;1.70;;;;;;;26.65;30.22;98836.78;532622;1089;116685;-58
2021/07/30 12:07:31;;;;;;;;;;;;;;;26.65;30.51;98822.52;531899;1090;116223;-59
2021/07/30 12:17:40;;;;;;;5.87;2.50;;;;;;;26.51;30.59;98817.27;532922;1090;103840;-59
2021/07/30 12:28:04;;;;;;;2.30;2.10;;;;;;;26.62;31.00;98798.73;532651;1088;117716;-60
2021/07/30 12:38:11;;;;;;;2.03;1.80;;;;;;;26.63;30.75;98803.88;531832;1087;117672;-60
2021/07/30 12:48:22;;;;;;;2.68;1.60;;;;;;;26.57;30.93;98789.44;532638;1088;117659;-59
2021/07/30 12:58:29;;;;;;;3.60;2.13;;;;;;;26.64;30.70;98778.60;531919;1089;116216;-58
2021/07/30 13:08:37;;;;;;;3.43;2.10;;;;;;;26.58;31.05;98774.13;532624;1089;115767;-59
2021/07/30 13:18:44;;;;;;;4.57;1.90;;;;;;;26.49;30.88;98770.91;532649;1089;116506;-60
2021/07/30 13:28:50;;;;;;;2.98;1.80;;;;;;;26.60;30.96;98752.35;531871;1089;117571;-57
2021/07/30 13:38:56;;;;;;;4.57;1.83;;;;;;;26.77;31.30;98739.95;532589;1088;115859;-58
2021/07/30 13:49:03;;;;;;;3.83;1.80;;;;;;;26.80;30.70;98747.56;531995;1090;116988;-58
2021/07/30 13:59:10;;;;;;;3.85;1.88;;;;;;;26.70;30.33;98744.58;531873;1090;116812;-58
2021/07/30 14:09:16;;;;;;;5.40;1.68;;;;;;;26.62;30.33;98736.83;532587;1088;117157;-58
2021/07/30 14:19:23;;;;;;;4.03;1.83;;;;;;;26.75;30.75;98733.13;531834;1088;116460;-56
2021/07/30 14:29:29;;;;;;;1.93;1.33;;;;;;;26.91;30.51;98729.88;532630;1089;116060;-58
2021/07/30 14:39:36;;;;;;;2.60;1.30;;;;;;;26.97;30.15;98714.67;532581;1089;117224;-58
2021/07/30 14:49:42;;;;;;;3.37;1.50;;;;;;;26.92;30.08;98712.66;531849;1088;116631;-59
2021/07/30 14:59:49;;;;;;;3.58;1.95;;;;;;;26.83;30.27;98695.94;532534;1089;116970;-58
2021/07/30 15:09:55;;;;;;;10.03;1.90;;;;;;;26.71;30.51;98690.52;532587;1088;116500;-58
2021/07/30 15:20:02;;;;;;;2.17;1.80;;;;;;;26.70;30.52;98677.27;527226;1088;116054;-58
2021/07/30 15:30:10;;;;;;;2.70;1.93;;;;;;;26.58;31.01;98682.61;523388;1088;116322;-58
2021/07/30 15:40:17;;;;;;;1.80;1.70;;;;;;;26.52;30.61;98684.33;532651;1090;116264;-59
2021/07/30 15:50:24;;;;;;;1.83;1.73;;;;;;;26.51;30.81;98680.00;532658;1088;116671;-58
2021/07/30 16:00:31;;;;;;;4.87;1.63;;;;;;;26.51;31.06;98663.85;532584;1089;167108;-59
2021/07/30 16:10:38;;;;;;;3.15;2.30;;;;;;;26.54;31.99;98663.39;531889;1089;116214;-58
2021/07/30 16:20:45;;;;;;;3.60;1.70;;;;;;;26.53;31.56;98650.98;532613;1089;116128;-59
2021/07/30 16:30:52;;;;;;;2.93;1.77;;;;;;;26.37;31.69;98655.11;532615;1088;116350;-58
2021/07/30 16:40:59;;;;;;;3.40;2.30;;;;;;;26.30;32.54;98654.34;531898;1089;117794;-59
2021/07/30 16:51:08;;;;;;;5.00;2.10;;;;;;;26.16;32.85;98653.66;532548;1089;116247;-59
2021/07/30 17:01:15;;;;;;;6.50;2.90;;;;;;;26.01;33.20;98645.95;532593;1088;116675;-59
2021/07/30 17:11:22;;;;;;;3.33;2.53;;;;;;;27.00;31.97;98652.27;532596;1088;116396;-59
2021/07/30 17:21:28;;;;;;;4.33;2.27;;;;;;;26.01;33.16;98654.83;532619;1089;116445;-59
2021/07/30 17:31:35;;;;;;;3.30;1.90;;;;;;;25.79;34.14;98662.50;531918;1088;116976;-58
2021/07/30 17:41:42;;;;;;;3.37;2.67;;;;;;;26.01;34.19;98659.40;532586;1088;115654;-59
2021/07/30 17:51:50;;;;;;;12.77;5.03;;;;;;;25.15;35.76;98651.80;532646;1089;116175;-59
2021/07/30 18:01:57;;;;;;;14.47;4.77;;;;;;;24.46;36.88;98655.83;531903;1089;116743;-59
2021/07/30 18:12:05;;;;;;;2.70;2.00;;;;;;;23.93;38.18;98657.61;532638;1090;116714;-59
2021/07/30 18:22:12;;;;;;;4.50;2.27;;;;;;;23.36;38.66;98647.33;532592;1089;116025;-58
2021/07/30 18:32:18;;;;;;;9.30;4.23;;;;;;;22.87;40.86;98669.86;531896;1089;118108;-59
2021/07/30 18:42:30;;;;;;;8.30;3.67;;;;;;;22.34;42.80;98681.95;532591;1089;116113;-59
2021/07/30 18:52:37;;;;;;;9.33;3.43;;;;;;;21.84;44.08;98690.89;531983;1088;116554;-59
2021/07/30 19:02:44;;;;;;;7.77;2.80;;;;;;;21.38;45.94;98700.95;532631;1089;116429;-59
2021/07/30 19:12:50;;;;;;;5.10;2.87;;;;;;;20.94;46.97;98699.24;532656;1088;115883;-59
2021/07/30 19:22:57;;;;;;;7.13;4.67;;;;;;;20.51;48.21;98705.27;531829;1089;117423;-60
2021/07/30 19:33:03;;;;;;;14.80;12.57;;;;;;;20.26;50.02;98706.35;532655;1088;116138;-58
2021/07/30 19:43:10;;;;;;;12.27;8.73;;;;;;;19.96;50.91;98708.97;532678;1090;116845;-58
2021/07/30 19:53:16;;;;;;;11.87;8.40;;;;;;;19.66;52.78;98695.58;531896;1088;117578;-59
2021/07/30 20:03:23;;;;;;;11.53;6.97;;;;;;;19.38;53.13;98708.60;532571;1088;116470;-58
2021/07/30 20:13:30;;;;;;;11.47;9.80;;;;;;;19.07;53.84;98720.09;531873;1088;116256;-58
2021/07/30 20:23:38;;;;;;;16.30;9.93;;;;;;;18.88;55.14;98706.22;532562;1088;117539;-59
2021/07/30 20:33:44;;;;;;;16.48;9.18;;;;;;;18.71;56.10;98700.95;532653;1088;116276;-59
2021/07/30 20:43:51;;;;;;;17.00;8.60;;;;;;;18.57;56.92;98697.19;523775;1088;116423;-59
2021/07/30 20:53:57;;;;;;;13.60;9.00;;;;;;;18.38;57.49;98695.77;532621;1088;116448;-59
2021/07/30 21:04:04;;;;;;;15.40;8.67;;;;;;;18.20;58.25;98698.64;532531;1089;115961;-59
2021/07/30 21:14:10;;;;;;;10.10;7.67;;;;;;;17.97;58.88;98690.53;531856;1088;117096;-59
2021/07/30 21:24:17;;;;;;;11.65;7.53;;;;;;;17.76;59.48;98687.38;532664;1089;116167;-59
2021/07/30 21:34:23;;;;;;;13.63;10.07;;;;;;;17.66;60.04;98705.33;531873;1089;116476;-59
2021/07/30 21:44:30;;;;;;;13.67;8.00;;;;;;;17.50;60.39;98690.23;532604;1088;116925;-58
2021/07/30 21:54:37;;;;;;;12.25;8.50;;;;;;;17.30;60.76;98702.96;532616;1089;116079;-58
2021/07/30 22:04:43;;;;;;;10.13;6.73;;;;;;;17.13;61.32;98699.45;531868;1089;116916;-58
2021/07/30 22:14:50;;;;;;;8.80;7.27;;;;;;;17.00;61.91;98692.80;532662;1088;116603;-58
2021/07/30 22:24:56;;;;;;;9.27;7.20;;;;;;;16.94;62.07;98704.03;532610;1089;116079;-58
2021/07/30 22:35:03;;;;;;;13.35;7.20;;;;;;;16.93;62.65;98710.33;531136;1088;117384;-59
2021/07/30 22:45:11;;;;;;;7.70;6.77;;;;;;;16.86;62.89;98701.34;532613;1090;117400;-58
2021/07/30 22:55:17;;;;;;;10.10;7.53;;;;;;;16.81;63.22;98707.97;532518;1090;116530;-58
2021/07/30 23:05:25;;;;;;;9.17;6.60;;;;;;;16.77;63.05;98711.10;532552;1089;116358;-59
2021/07/30 23:15:30;;;;;;;;;;;;;;;16.59;63.50;98705.89;523584;1088;10001359;-59
2021/07/30 23:25:36;;;;;;;9.77;6.97;;;;;;;16.34;63.74;98711.08;532079;1089;103773;-58
2021/07/30 23:35:44;;;;;;;15.70;8.37;;;;;;;16.31;63.86;98708.72;532430;1089;117186;-59
2021/07/30 23:45:51;;;;;;;8.35;6.18;;;;;;;16.33;64.15;98715.53;528425;1088;116472;-59
2021/07/30 23:55:58;;;;;;;9.10;7.27;;;;;;;16.32;64.33;98705.08;516619;1088;116661;-59
